sensor_id;sensor_type;location;lat;lon;timestamp;P1;durP1;ratioP1;P2;durP2;ratioP2
40022;SDS011;25713;-35.352;149.036;2023-04-01T00:01:42;1.00;;;0.50;;
40022;SDS011;25713;-35.352;149.036;2023-04-01T00:04:13;1.27;;;0.68;;
40022;SDS011;25713;-35.352;149.036;2023-04-01T00:06:42;1.50;;;0.70;;
40022;SDS011;25713;-35.352;149.036;2023-04-01T00:09:12;0.60;;;0.55;;
40022;SDS011;25713;-35.352;149.036;2023-04-01T00:11:42;0.70;;;0.65;;
40022;SDS011;25713;-35.352;149.036;2023-04-01T00:14:11;0.98;;;0.70;;
40022;SDS011;25713;-35.352;149.036;2023-04-01T00:16:40;1.83;;;0.68;;
40022;SDS011;25713;-35.352;149.036;2023-04-01T00:19:10;2.30;;;0.80;;
40022;SDS011;25713;-35.352;149.036;2023-04-01T00:21:42;1.13;;;0.63;;
40022;SDS011;25713;-35.352;149.036;2023-04-01T00:24:12;0.93;;;0.60;;
40022;SDS011;25713;-35.352;149.036;2023-04-01T00:26:41;1.33;;;0.70;;
40022;SDS011;25713;-35.352;149.036;2023-04-01T00:29:10;0.88;;;0.63;;
40022;SDS011;25713;-35.352;149.036;2023-04-01T00:31:40;1.63;;;0.77;;
40022;SDS011;25713;-35.352;149.036;2023-04-01T00:34:09;0.88;;;0.60;;
40022;SDS011;25713;-35.352;149.036;2023-04-01T00:36:41;0.90;;;0.55;;
40022;SDS011;25713;-35.352;149.036;2023-04-01T00:39:11;0.75;;;0.60;;
40022;SDS011;25713;-35.352;149.036;2023-04-01T00:41:40;2.15;;;0.60;;
40022;SDS011;25713;-35.352;149.036;2023-04-01T00:44:16;1.35;;;0.68;;
40022;SDS011;25713;-35.352;149.036;2023-04-01T00:46:47;1.00;;;0.80;;
40022;SDS011;25713;-35.352;149.036;2023-04-01T00:49:17;2.15;;;0.80;;
40022;SDS011;25713;-35.352;149.036;2023-04-01T00:51:52;1.30;;;0.70;;
40022;SDS011;25713;-35.352;149.036;2023-04-01T00:54:24;1.05;;;0.50;;
40022;SDS011;25713;-35.352;149.036;2023-04-01T00:56:55;1.35;;;0.80;;
40022;SDS011;25713;-35.352;149.036;2023-04-01T00:59:27;1.23;;;0.60;;
40022;SDS011;25713;-35.352;149.036;2023-04-01T01:02:00;0.50;;;0.50;;
40022;SDS011;25713;-35.352;149.036;2023-04-01T01:04:31;0.77;;;0.50;;
40022;SDS011;25713;-35.352;149.036;2023-04-01T01:07:06;1.17;;;0.70;;
40022;SDS011;25713;-35.352;149.036;2023-04-01T01:09:48;1.50;;;0.80;;
40022;SDS011;25713;-35.352;149.036;2023-04-01T01:12:26;0.88;;;0.70;;
40022;SDS011;25713;-35.352;149.036;2023-04-01T01:15:05;0.70;;;0.60;;
40022;SDS011;25713;-35.352;149.036;2023-04-01T01:17:44;0.90;;;0.63;;
40022;SDS011;25713;-35.352;149.036;2023-04-01T01:23:37;0.70;;;0.70;;
40022;SDS011;25713;-35.352;149.036;2023-04-01T01:26:37;0.90;;;0.60;;
40022;SDS011;25713;-35.352;149.036;2023-04-01T01:32:10;0.60;;;0.50;;
40022;SDS011;25713;-35.352;149.036;2023-04-01T01:34:46;1.27;;;1.02;;
40022;SDS011;25713;-35.352;149.036;2023-04-01T01:37:25;0.82;;;0.70;;
40022;SDS011;25713;-35.352;149.036;2023-04-01T01:39:57;2.72;;;0.77;;
40022;SDS011;25713;-35.352;149.036;2023-04-01T01:42:31;1.42;;;0.70;;
40022;SDS011;25713;-35.352;149.036;2023-04-01T01:45:03;2.72;;;0.65;;
40022;SDS011;25713;-35.352;149.036;2023-04-01T01:47:34;0.65;;;0.65;;
40022;SDS011;25713;-35.352;149.036;2023-04-01T01:50:06;1.40;;;0.70;;
40022;SDS011;25713;-35.352;149.036;2023-04-01T01:52:39;1.15;;;0.70;;
40022;SDS011;25713;-35.352;149.036;2023-04-01T01:55:23;3.60;;;0.70;;
40022;SDS011;25713;-35.352;149.036;2023-04-01T01:57:56;0.80;;;0.80;;
40022;SDS011;25713;-35.352;149.036;2023-04-01T02:00:28;1.45;;;1.35;;
40022;SDS011;25713;-35.352;149.036;2023-04-01T02:03:00;1.80;;;0.93;;
40022;SDS011;25713;-35.352;149.036;2023-04-01T02:05:30;1.00;;;0.80;;
40022;SDS011;25713;-35.352;149.036;2023-04-01T02:08:10;1.33;;;0.95;;
40022;SDS011;25713;-35.352;149.036;2023-04-01T02:10:42;1.65;;;1.05;;
40022;SDS011;25713;-35.352;149.036;2023-04-01T02:13:17;1.83;;;1.13;;
40022;SDS011;25713;-35.352;149.036;2023-04-01T02:15:52;1.10;;;1.00;;
40022;SDS011;25713;-35.352;149.036;2023-04-01T02:18:27;1.45;;;1.08;;
40022;SDS011;25713;-35.352;149.036;2023-04-01T02:20:57;1.65;;;1.35;;
40022;SDS011;25713;-35.352;149.036;2023-04-01T02:23:30;1.30;;;1.13;;
40022;SDS011;25713;-35.352;149.036;2023-04-01T02:26:02;2.05;;;1.30;;
40022;SDS011;25713;-35.352;149.036;2023-04-01T02:28:34;2.92;;;1.40;;
40022;SDS011;25713;-35.352;149.036;2023-04-01T02:31:06;2.05;;;1.45;;
40022;SDS011;25713;-35.352;149.036;2023-04-01T02:33:37;3.25;;;1.80;;
40022;SDS011;25713;-35.352;149.036;2023-04-01T02:36:07;1.88;;;1.50;;
40022;SDS011;25713;-35.352;149.036;2023-04-01T02:38:43;2.00;;;1.80;;
40022;SDS011;25713;-35.352;149.036;2023-04-01T02:41:14;2.58;;;1.80;;
40022;SDS011;25713;-35.352;149.036;2023-04-01T02:43:43;1.35;;;1.25;;
40022;SDS011;25713;-35.352;149.036;2023-04-01T02:46:13;4.47;;;1.80;;
40022;SDS011;25713;-35.352;149.036;2023-04-01T02:48:42;2.53;;;1.55;;
40022;SDS011;25713;-35.352;149.036;2023-04-01T02:51:12;2.38;;;1.77;;
40022;SDS011;25713;-35.352;149.036;2023-04-01T02:53:43;2.22;;;1.70;;
40022;SDS011;25713;-35.352;149.036;2023-04-01T02:56:12;2.90;;;1.60;;
40022;SDS011;25713;-35.352;149.036;2023-04-01T02:58:42;1.70;;;1.60;;
40022;SDS011;25713;-35.352;149.036;2023-04-01T03:01:11;1.90;;;1.70;;
40022;SDS011;25713;-35.352;149.036;2023-04-01T03:03:41;3.08;;;1.45;;
40022;SDS011;25713;-35.352;149.036;2023-04-01T03:06:11;2.35;;;1.75;;
40022;SDS011;25713;-35.352;149.036;2023-04-01T03:08:45;2.97;;;1.60;;
40022;SDS011;25713;-35.352;149.036;2023-04-01T03:11:14;1.67;;;1.50;;
40022;SDS011;25713;-35.352;149.036;2023-04-01T03:13:44;2.17;;;1.80;;
40022;SDS011;25713;-35.352;149.036;2023-04-01T03:16:14;3.47;;;1.90;;
40022;SDS011;25713;-35.352;149.036;2023-04-01T03:18:43;1.92;;;1.70;;
40022;SDS011;25713;-35.352;149.036;2023-04-01T03:21:14;2.60;;;2.10;;
40022;SDS011;25713;-35.352;149.036;2023-04-01T03:23:45;2.47;;;1.70;;
40022;SDS011;25713;-35.352;149.036;2023-04-01T03:26:15;2.90;;;1.90;;
40022;SDS011;25713;-35.352;149.036;2023-04-01T03:28:45;4.10;;;1.88;;
40022;SDS011;25713;-35.352;149.036;2023-04-01T03:31:14;2.35;;;1.80;;
40022;SDS011;25713;-35.352;149.036;2023-04-01T03:33:50;1.80;;;1.50;;
40022;SDS011;25713;-35.352;149.036;2023-04-01T03:36:19;2.08;;;1.80;;
40022;SDS011;25713;-35.352;149.036;2023-04-01T03:38:51;2.13;;;1.52;;
40022;SDS011;25713;-35.352;149.036;2023-04-01T03:41:28;2.15;;;1.92;;
40022;SDS011;25713;-35.352;149.036;2023-04-01T03:43:58;2.30;;;1.90;;
40022;SDS011;25713;-35.352;149.036;2023-04-01T03:46:27;2.40;;;1.70;;
40022;SDS011;25713;-35.352;149.036;2023-04-01T03:48:57;1.95;;;1.60;;
40022;SDS011;25713;-35.352;149.036;2023-04-01T03:51:26;2.35;;;1.90;;
40022;SDS011;25713;-35.352;149.036;2023-04-01T03:53:59;2.55;;;1.80;;
40022;SDS011;25713;-35.352;149.036;2023-04-01T03:56:28;2.45;;;1.95;;
40022;SDS011;25713;-35.352;149.036;2023-04-01T03:58:58;2.17;;;1.95;;
40022;SDS011;25713;-35.352;149.036;2023-04-01T04:01:29;2.78;;;1.98;;
40022;SDS011;25713;-35.352;149.036;2023-04-01T04:03:59;2.08;;;1.88;;
40022;SDS011;25713;-35.352;149.036;2023-04-01T04:06:29;3.35;;;2.33;;
40022;SDS011;25713;-35.352;149.036;2023-04-01T04:09:01;2.30;;;1.90;;
40022;SDS011;25713;-35.352;149.036;2023-04-01T04:11:31;2.35;;;2.15;;
40022;SDS011;25713;-35.352;149.036;2023-04-01T04:14:01;2.17;;;1.98;;
40022;SDS011;25713;-35.352;149.036;2023-04-01T04:16:31;2.65;;;2.22;;
40022;SDS011;25713;-35.352;149.036;2023-04-01T04:19:03;2.35;;;2.15;;
40022;SDS011;25713;-35.352;149.036;2023-04-01T04:21:33;5.35;;;2.38;;
40022;SDS011;25713;-35.352;149.036;2023-04-01T04:24:04;4.55;;;2.60;;
40022;SDS011;25713;-35.352;149.036;2023-04-01T04:26:53;3.90;;;2.45;;
40022;SDS011;25713;-35.352;149.036;2023-04-01T04:29:23;3.80;;;2.40;;
40022;SDS011;25713;-35.352;149.036;2023-04-01T04:31:53;3.58;;;2.50;;
40022;SDS011;25713;-35.352;149.036;2023-04-01T04:34:23;3.25;;;2.33;;
40022;SDS011;25713;-35.352;149.036;2023-04-01T04:36:52;3.25;;;2.92;;
40022;SDS011;25713;-35.352;149.036;2023-04-01T04:39:27;2.72;;;2.40;;
40022;SDS011;25713;-35.352;149.036;2023-04-01T04:41:57;3.13;;;2.33;;
40022;SDS011;25713;-35.352;149.036;2023-04-01T04:44:26;3.88;;;2.80;;
40022;SDS011;25713;-35.352;149.036;2023-04-01T04:46:56;2.40;;;2.17;;
40022;SDS011;25713;-35.352;149.036;2023-04-01T04:49:25;2.65;;;2.45;;
40022;SDS011;25713;-35.352;149.036;2023-04-01T04:51:55;2.83;;;2.25;;
40022;SDS011;25713;-35.352;149.036;2023-04-01T04:54:29;3.22;;;2.35;;
40022;SDS011;25713;-35.352;149.036;2023-04-01T04:57:00;2.90;;;2.33;;
40022;SDS011;25713;-35.352;149.036;2023-04-01T04:59:34;4.13;;;2.80;;
40022;SDS011;25713;-35.352;149.036;2023-04-01T05:02:11;7.28;;;2.95;;
40022;SDS011;25713;-35.352;149.036;2023-04-01T05:04:41;3.65;;;2.45;;
40022;SDS011;25713;-35.352;149.036;2023-04-01T05:07:11;3.83;;;2.50;;
40022;SDS011;25713;-35.352;149.036;2023-04-01T05:09:43;4.28;;;2.70;;
40022;SDS011;25713;-35.352;149.036;2023-04-01T05:12:13;3.67;;;2.35;;
40022;SDS011;25713;-35.352;149.036;2023-04-01T05:15:08;4.07;;;2.53;;
40022;SDS011;25713;-35.352;149.036;2023-04-01T05:17:39;3.15;;;2.78;;
40022;SDS011;25713;-35.352;149.036;2023-04-01T05:20:11;2.95;;;2.50;;
40022;SDS011;25713;-35.352;149.036;2023-04-01T05:22:41;3.58;;;2.90;;
40022;SDS011;25713;-35.352;149.036;2023-04-01T05:25:12;3.20;;;2.53;;
40022;SDS011;25713;-35.352;149.036;2023-04-01T05:27:42;3.38;;;2.40;;
40022;SDS011;25713;-35.352;149.036;2023-04-01T05:30:12;2.60;;;2.38;;
40022;SDS011;25713;-35.352;149.036;2023-04-01T05:33:04;3.33;;;2.45;;
40022;SDS011;25713;-35.352;149.036;2023-04-01T05:35:33;2.95;;;2.45;;
40022;SDS011;25713;-35.352;149.036;2023-04-01T05:38:03;2.80;;;2.30;;
40022;SDS011;25713;-35.352;149.036;2023-04-01T05:40:35;4.13;;;2.67;;
40022;SDS011;25713;-35.352;149.036;2023-04-01T05:43:04;5.45;;;2.58;;
40022;SDS011;25713;-35.352;149.036;2023-04-01T05:45:34;3.60;;;2.80;;
40022;SDS011;25713;-35.352;149.036;2023-04-01T05:48:13;2.75;;;2.28;;
40022;SDS011;25713;-35.352;149.036;2023-04-01T05:50:42;2.65;;;2.22;;
40022;SDS011;25713;-35.352;149.036;2023-04-01T05:53:12;2.35;;;2.10;;
40022;SDS011;25713;-35.352;149.036;2023-04-01T05:55:46;3.45;;;2.35;;
40022;SDS011;25713;-35.352;149.036;2023-04-01T05:58:15;3.05;;;2.50;;
40022;SDS011;25713;-35.352;149.036;2023-04-01T06:00:47;3.80;;;2.65;;
40022;SDS011;25713;-35.352;149.036;2023-04-01T06:03:17;3.85;;;2.47;;
40022;SDS011;25713;-35.352;149.036;2023-04-01T06:05:46;2.72;;;2.40;;
40022;SDS011;25713;-35.352;149.036;2023-04-01T06:08:16;3.45;;;2.35;;
40022;SDS011;25713;-35.352;149.036;2023-04-01T06:10:55;2.90;;;2.20;;
40022;SDS011;25713;-35.352;149.036;2023-04-01T06:13:39;3.58;;;2.22;;
40022;SDS011;25713;-35.352;149.036;2023-04-01T06:16:21;3.10;;;2.22;;
40022;SDS011;25713;-35.352;149.036;2023-04-01T06:19:03;2.80;;;2.13;;
40022;SDS011;25713;-35.352;149.036;2023-04-01T06:22:01;2.95;;;2.20;;
40022;SDS011;25713;-35.352;149.036;2023-04-01T06:25:05;3.60;;;2.58;;
40022;SDS011;25713;-35.352;149.036;2023-04-01T06:27:52;2.88;;;2.28;;
40022;SDS011;25713;-35.352;149.036;2023-04-01T06:30:34;2.50;;;2.13;;
40022;SDS011;25713;-35.352;149.036;2023-04-01T06:39:14;3.38;;;2.47;;
40022;SDS011;25713;-35.352;149.036;2023-04-01T06:42:10;2.80;;;2.20;;
40022;SDS011;25713;-35.352;149.036;2023-04-01T06:45:06;3.55;;;2.42;;
40022;SDS011;25713;-35.352;149.036;2023-04-01T06:48:10;3.13;;;2.05;;
40022;SDS011;25713;-35.352;149.036;2023-04-01T06:51:11;3.00;;;2.15;;
40022;SDS011;25713;-35.352;149.036;2023-04-01T06:54:08;3.72;;;2.35;;
40022;SDS011;25713;-35.352;149.036;2023-04-01T06:56:59;4.90;;;2.30;;
40022;SDS011;25713;-35.352;149.036;2023-04-01T06:59:33;2.35;;;1.88;;
40022;SDS011;25713;-35.352;149.036;2023-04-01T07:02:11;4.05;;;2.40;;
40022;SDS011;25713;-35.352;149.036;2023-04-01T07:04:48;4.05;;;2.13;;
40022;SDS011;25713;-35.352;149.036;2023-04-01T07:07:27;3.22;;;2.40;;
40022;SDS011;25713;-35.352;149.036;2023-04-01T07:10:05;2.92;;;2.10;;
40022;SDS011;25713;-35.352;149.036;2023-04-01T07:12:58;2.38;;;2.00;;
40022;SDS011;25713;-35.352;149.036;2023-04-01T07:15:49;5.40;;;2.10;;
40022;SDS011;25713;-35.352;149.036;2023-04-01T07:18:32;4.40;;;2.08;;
40022;SDS011;25713;-35.352;149.036;2023-04-01T07:21:07;2.10;;;1.77;;
40022;SDS011;25713;-35.352;149.036;2023-04-01T07:23:45;2.58;;;1.85;;
40022;SDS011;25713;-35.352;149.036;2023-04-01T07:26:28;2.75;;;1.92;;
40022;SDS011;25713;-35.352;149.036;2023-04-01T07:29:09;2.85;;;1.90;;
40022;SDS011;25713;-35.352;149.036;2023-04-01T07:32:20;4.05;;;2.05;;
40022;SDS011;25713;-35.352;149.036;2023-04-01T07:35:04;2.53;;;2.00;;
40022;SDS011;25713;-35.352;149.036;2023-04-01T07:37:47;2.55;;;2.00;;
40022;SDS011;25713;-35.352;149.036;2023-04-01T07:40:30;3.17;;;2.13;;
40022;SDS011;25713;-35.352;149.036;2023-04-01T07:43:25;2.92;;;2.20;;
40022;SDS011;25713;-35.352;149.036;2023-04-01T07:46:26;2.97;;;2.30;;
40022;SDS011;25713;-35.352;149.036;2023-04-01T07:49:12;2.33;;;2.03;;
40022;SDS011;25713;-35.352;149.036;2023-04-01T07:51:47;2.33;;;2.13;;
40022;SDS011;25713;-35.352;149.036;2023-04-01T07:54:26;3.05;;;2.17;;
40022;SDS011;25713;-35.352;149.036;2023-04-01T07:57:02;3.83;;;2.17;;
40022;SDS011;25713;-35.352;149.036;2023-04-01T07:59:51;2.58;;;1.90;;
40022;SDS011;25713;-35.352;149.036;2023-04-01T08:02:44;2.35;;;2.00;;
40022;SDS011;25713;-35.352;149.036;2023-04-01T08:08:23;2.35;;;1.83;;
40022;SDS011;25713;-35.352;149.036;2023-04-01T08:11:32;3.00;;;2.13;;
40022;SDS011;25713;-35.352;149.036;2023-04-01T08:14:27;2.75;;;1.98;;
40022;SDS011;25713;-35.352;149.036;2023-04-01T08:17:23;3.28;;;2.00;;
40022;SDS011;25713;-35.352;149.036;2023-04-01T08:20:03;2.90;;;1.75;;
40022;SDS011;25713;-35.352;149.036;2023-04-01T08:22:42;3.00;;;1.80;;
40022;SDS011;25713;-35.352;149.036;2023-04-01T08:25:28;2.85;;;1.90;;
40022;SDS011;25713;-35.352;149.036;2023-04-01T08:28:00;3.28;;;1.60;;
40022;SDS011;25713;-35.352;149.036;2023-04-01T08:30:40;3.78;;;1.80;;
40022;SDS011;25713;-35.352;149.036;2023-04-01T08:33:15;2.63;;;1.80;;
40022;SDS011;25713;-35.352;149.036;2023-04-01T08:35:56;2.83;;;2.10;;
40022;SDS011;25713;-35.352;149.036;2023-04-01T08:38:31;3.10;;;1.90;;
40022;SDS011;25713;-35.352;149.036;2023-04-01T08:41:18;3.40;;;1.90;;
40022;SDS011;25713;-35.352;149.036;2023-04-01T08:54:21;2.95;;;2.10;;
40022;SDS011;25713;-35.352;149.036;2023-04-01T08:57:32;2.80;;;2.45;;
40022;SDS011;25713;-35.352;149.036;2023-04-01T09:00:30;2.13;;;1.73;;
40022;SDS011;25713;-35.352;149.036;2023-04-01T09:03:25;2.13;;;1.92;;
40022;SDS011;25713;-35.352;149.036;2023-04-01T09:06:29;2.85;;;1.92;;
40022;SDS011;25713;-35.352;149.036;2023-04-01T09:09:19;2.40;;;1.80;;
40022;SDS011;25713;-35.352;149.036;2023-04-01T09:12:07;3.05;;;2.13;;
40022;SDS011;25713;-35.352;149.036;2023-04-01T09:15:04;2.80;;;1.95;;
40022;SDS011;25713;-35.352;149.036;2023-04-01T09:24:31;2.78;;;1.80;;
40022;SDS011;25713;-35.352;149.036;2023-04-01T09:27:21;5.15;;;1.60;;
40022;SDS011;25713;-35.352;149.036;2023-04-01T09:30:06;2.72;;;1.80;;
40022;SDS011;25713;-35.352;149.036;2023-04-01T09:33:09;2.83;;;1.50;;
40022;SDS011;25713;-35.352;149.036;2023-04-01T09:36:14;3.90;;;1.90;;
40022;SDS011;25713;-35.352;149.036;2023-04-01T09:38:55;1.63;;;1.48;;
40022;SDS011;25713;-35.352;149.036;2023-04-01T09:41:28;2.22;;;1.50;;
40022;SDS011;25713;-35.352;149.036;2023-04-01T09:44:10;2.35;;;1.55;;
40022;SDS011;25713;-35.352;149.036;2023-04-01T09:47:05;2.05;;;1.23;;
40022;SDS011;25713;-35.352;149.036;2023-04-01T09:49:57;2.13;;;1.40;;
40022;SDS011;25713;-35.352;149.036;2023-04-01T09:52:44;2.75;;;1.30;;
40022;SDS011;25713;-35.352;149.036;2023-04-01T09:58:38;1.40;;;1.20;;
40022;SDS011;25713;-35.352;149.036;2023-04-01T10:05:30;1.83;;;1.20;;
40022;SDS011;25713;-35.352;149.036;2023-04-01T10:11:21;2.40;;;1.45;;
40022;SDS011;25713;-35.352;149.036;2023-04-01T10:14:23;2.10;;;1.20;;
40022;SDS011;25713;-35.352;149.036;2023-04-01T10:17:09;2.42;;;0.90;;
40022;SDS011;25713;-35.352;149.036;2023-04-01T10:20:30;1.55;;;0.90;;
40022;SDS011;25713;-35.352;149.036;2023-04-01T10:23:33;1.77;;;1.00;;
40022;SDS011;25713;-35.352;149.036;2023-04-01T10:36:21;2.05;;;0.90;;
40022;SDS011;25713;-35.352;149.036;2023-04-01T10:39:08;1.20;;;0.70;;
40022;SDS011;25713;-35.352;149.036;2023-04-01T10:42:27;4.22;;;0.82;;
40022;SDS011;25713;-35.352;149.036;2023-04-01T10:48:57;1.80;;;0.70;;
40022;SDS011;25713;-35.352;149.036;2023-04-01T10:52:08;1.90;;;0.95;;
40022;SDS011;25713;-35.352;149.036;2023-04-01T10:55:32;1.38;;;0.63;;
40022;SDS011;25713;-35.352;149.036;2023-04-01T11:15:13;1.95;;;0.70;;
40022;SDS011;25713;-35.352;149.036;2023-04-01T11:24:20;1.90;;;0.70;;
40022;SDS011;25713;-35.352;149.036;2023-04-01T11:27:37;1.17;;;0.70;;
40022;SDS011;25713;-35.352;149.036;2023-04-01T11:30:20;1.92;;;0.70;;
40022;SDS011;25713;-35.352;149.036;2023-04-01T11:32:58;2.33;;;0.90;;
40022;SDS011;25713;-35.352;149.036;2023-04-01T11:38:44;0.60;;;0.50;;
40022;SDS011;25713;-35.352;149.036;2023-04-01T11:41:46;0.80;;;0.50;;
40022;SDS011;25713;-35.352;149.036;2023-04-01T11:44:43;1.27;;;0.60;;
40022;SDS011;25713;-35.352;149.036;2023-04-01T11:47:46;1.48;;;0.60;;
40022;SDS011;25713;-35.352;149.036;2023-04-01T11:50:38;1.65;;;0.60;;
40022;SDS011;25713;-35.352;149.036;2023-04-01T11:53:27;1.77;;;0.63;;
40022;SDS011;25713;-35.352;149.036;2023-04-01T11:56:14;1.75;;;0.57;;
40022;SDS011;25713;-35.352;149.036;2023-04-01T11:59:03;1.75;;;0.55;;
40022;SDS011;25713;-35.352;149.036;2023-04-01T12:02:02;1.08;;;0.60;;
40022;SDS011;25713;-35.352;149.036;2023-04-01T12:04:51;0.65;;;0.52;;
40022;SDS011;25713;-35.352;149.036;2023-04-01T12:10:31;2.40;;;0.70;;
40022;SDS011;25713;-35.352;149.036;2023-04-01T12:13:09;0.80;;;0.57;;
40022;SDS011;25713;-35.352;149.036;2023-04-01T12:15:56;1.73;;;0.60;;
40022;SDS011;25713;-35.352;149.036;2023-04-01T12:18:46;1.70;;;0.70;;
40022;SDS011;25713;-35.352;149.036;2023-04-01T12:21:22;1.77;;;0.65;;
40022;SDS011;25713;-35.352;149.036;2023-04-01T12:24:11;2.50;;;0.60;;
40022;SDS011;25713;-35.352;149.036;2023-04-01T12:27:12;1.92;;;0.68;;
40022;SDS011;25713;-35.352;149.036;2023-04-01T12:30:08;1.23;;;0.50;;
40022;SDS011;25713;-35.352;149.036;2023-04-01T12:33:04;1.38;;;0.52;;
40022;SDS011;25713;-35.352;149.036;2023-04-01T12:35:55;1.42;;;0.57;;
40022;SDS011;25713;-35.352;149.036;2023-04-01T12:38:38;2.80;;;0.60;;
40022;SDS011;25713;-35.352;149.036;2023-04-01T12:41:22;1.15;;;0.60;;
40022;SDS011;25713;-35.352;149.036;2023-04-01T12:47:03;1.30;;;0.60;;
40022;SDS011;25713;-35.352;149.036;2023-04-01T12:49:55;1.30;;;0.57;;
40022;SDS011;25713;-35.352;149.036;2023-04-01T12:52:50;2.42;;;0.70;;
40022;SDS011;25713;-35.352;149.036;2023-04-01T12:55:39;1.20;;;0.57;;
40022;SDS011;25713;-35.352;149.036;2023-04-01T13:01:52;0.52;;;0.43;;
40022;SDS011;25713;-35.352;149.036;2023-04-01T13:04:40;2.50;;;0.50;;
40022;SDS011;25713;-35.352;149.036;2023-04-01T13:07:38;1.80;;;0.60;;
40022;SDS011;25713;-35.352;149.036;2023-04-01T13:10:29;2.65;;;0.60;;
40022;SDS011;25713;-35.352;149.036;2023-04-01T13:16:05;2.30;;;0.55;;
40022;SDS011;25713;-35.352;149.036;2023-04-01T13:18:39;1.20;;;0.47;;
40022;SDS011;25713;-35.352;149.036;2023-04-01T13:21:24;1.40;;;0.60;;
40022;SDS011;25713;-35.352;149.036;2023-04-01T13:24:03;1.10;;;0.43;;
40022;SDS011;25713;-35.352;149.036;2023-04-01T13:26:53;1.33;;;0.60;;
40022;SDS011;25713;-35.352;149.036;2023-04-01T13:29:30;3.33;;;0.60;;
40022;SDS011;25713;-35.352;149.036;2023-04-01T13:32:06;0.57;;;0.47;;
40022;SDS011;25713;-35.352;149.036;2023-04-01T13:37:49;0.57;;;0.40;;
40022;SDS011;25713;-35.352;149.036;2023-04-01T13:40:34;0.98;;;0.40;;
40022;SDS011;25713;-35.352;149.036;2023-04-01T13:43:11;0.68;;;0.40;;
40022;SDS011;25713;-35.352;149.036;2023-04-01T13:45:49;2.20;;;0.50;;
40022;SDS011;25713;-35.352;149.036;2023-04-01T13:48:39;0.63;;;0.40;;
40022;SDS011;25713;-35.352;149.036;2023-04-01T13:51:38;1.05;;;0.47;;
40022;SDS011;25713;-35.352;149.036;2023-04-01T13:57:23;2.00;;;0.50;;
40022;SDS011;25713;-35.352;149.036;2023-04-01T14:00:15;2.17;;;0.47;;
40022;SDS011;25713;-35.352;149.036;2023-04-01T14:02:53;2.22;;;0.40;;
40022;SDS011;25713;-35.352;149.036;2023-04-01T14:05:47;1.40;;;0.40;;
40022;SDS011;25713;-35.352;149.036;2023-04-01T14:08:36;1.25;;;0.43;;
40022;SDS011;25713;-35.352;149.036;2023-04-01T14:11:24;2.25;;;0.50;;
40022;SDS011;25713;-35.352;149.036;2023-04-01T14:14:01;0.77;;;0.40;;
40022;SDS011;25713;-35.352;149.036;2023-04-01T14:16:51;2.45;;;0.47;;
40022;SDS011;25713;-35.352;149.036;2023-04-01T14:22:56;0.40;;;0.40;;
40022;SDS011;25713;-35.352;149.036;2023-04-01T14:25:51;0.80;;;0.40;;
40022;SDS011;25713;-35.352;149.036;2023-04-01T14:28:32;1.55;;;0.40;;
40022;SDS011;25713;-35.352;149.036;2023-04-01T14:31:19;0.30;;;0.30;;
40022;SDS011;25713;-35.352;149.036;2023-04-01T14:34:00;1.20;;;0.40;;
40022;SDS011;25713;-35.352;149.036;2023-04-01T14:39:51;1.58;;;0.30;;
40022;SDS011;25713;-35.352;149.036;2023-04-01T14:42:52;1.00;;;0.45;;
40022;SDS011;25713;-35.352;149.036;2023-04-01T14:45:44;0.32;;;0.30;;
40022;SDS011;25713;-35.352;149.036;2023-04-01T14:48:25;2.50;;;0.32;;
40022;SDS011;25713;-35.352;149.036;2023-04-01T15:51:49;0.85;;;0.35;;
40022;SDS011;25713;-35.352;149.036;2023-04-01T15:54:27;1.15;;;0.40;;
40022;SDS011;25713;-35.352;149.036;2023-04-01T15:57:26;0.73;;;0.38;;
40022;SDS011;25713;-35.352;149.036;2023-04-01T16:00:08;0.30;;;0.30;;
40022;SDS011;25713;-35.352;149.036;2023-04-01T16:02:48;0.30;;;0.30;;
40022;SDS011;25713;-35.352;149.036;2023-04-01T16:05:24;0.90;;;0.50;;
40022;SDS011;25713;-35.352;149.036;2023-04-01T16:08:06;0.70;;;0.40;;
40022;SDS011;25713;-35.352;149.036;2023-04-01T16:10:52;1.40;;;0.28;;
40022;SDS011;25713;-35.352;149.036;2023-04-01T16:13:35;0.47;;;0.30;;
40022;SDS011;25713;-35.352;149.036;2023-04-01T16:16:17;0.63;;;0.30;;
40022;SDS011;25713;-35.352;149.036;2023-04-01T16:21:54;0.52;;;0.30;;
40022;SDS011;25713;-35.352;149.036;2023-04-01T16:24:33;0.93;;;0.40;;
40022;SDS011;25713;-35.352;149.036;2023-04-01T16:27:08;0.40;;;0.30;;
40022;SDS011;25713;-35.352;149.036;2023-04-01T16:29:45;2.45;;;0.50;;
40022;SDS011;25713;-35.352;149.036;2023-04-01T16:32:22;0.32;;;0.20;;
40022;SDS011;25713;-35.352;149.036;2023-04-01T16:35:20;0.90;;;0.40;;
40022;SDS011;25713;-35.352;149.036;2023-04-01T16:37:59;0.68;;;0.47;;
40022;SDS011;25713;-35.352;149.036;2023-04-01T16:40:40;0.47;;;0.20;;
40022;SDS011;25713;-35.352;149.036;2023-04-01T16:43:16;1.15;;;0.40;;
40022;SDS011;25713;-35.352;149.036;2023-04-01T16:45:54;0.75;;;0.30;;
40022;SDS011;25713;-35.352;149.036;2023-04-01T16:48:49;0.63;;;0.20;;
40022;SDS011;25713;-35.352;149.036;2023-04-01T16:51:27;0.20;;;0.20;;
40022;SDS011;25713;-35.352;149.036;2023-04-01T16:54:05;0.20;;;0.20;;
40022;SDS011;25713;-35.352;149.036;2023-04-01T16:56:43;1.40;;;0.50;;
40022;SDS011;25713;-35.352;149.036;2023-04-01T16:59:19;1.02;;;0.30;;
40022;SDS011;25713;-35.352;149.036;2023-04-01T17:01:53;0.15;;;0.15;;
40022;SDS011;25713;-35.352;149.036;2023-04-01T17:04:31;0.57;;;0.30;;
40022;SDS011;25713;-35.352;149.036;2023-04-01T17:07:11;0.93;;;0.30;;
40022;SDS011;25713;-35.352;149.036;2023-04-01T17:10:02;0.75;;;0.20;;
40022;SDS011;25713;-35.352;149.036;2023-04-01T17:12:48;0.38;;;0.20;;
40022;SDS011;25713;-35.352;149.036;2023-04-01T17:15:30;0.63;;;0.30;;
40022;SDS011;25713;-35.352;149.036;2023-04-01T17:18:04;0.30;;;0.30;;
40022;SDS011;25713;-35.352;149.036;2023-04-01T17:20:42;0.38;;;0.20;;
40022;SDS011;25713;-35.352;149.036;2023-04-01T17:23:19;0.55;;;0.25;;
40022;SDS011;25713;-35.352;149.036;2023-04-01T17:26:06;1.00;;;0.40;;
40022;SDS011;25713;-35.352;149.036;2023-04-01T17:28:48;0.30;;;0.30;;
40022;SDS011;25713;-35.352;149.036;2023-04-01T17:31:29;0.20;;;0.20;;
40022;SDS011;25713;-35.352;149.036;2023-04-01T17:34:18;0.57;;;0.30;;
40022;SDS011;25713;-35.352;149.036;2023-04-01T17:37:15;0.30;;;0.30;;
40022;SDS011;25713;-35.352;149.036;2023-04-01T17:39:58;0.22;;;0.20;;
40022;SDS011;25713;-35.352;149.036;2023-04-01T17:42:40;0.30;;;0.30;;
40022;SDS011;25713;-35.352;149.036;2023-04-01T17:45:21;0.50;;;0.40;;
40022;SDS011;25713;-35.352;149.036;2023-04-01T17:47:58;0.60;;;0.40;;
40022;SDS011;25713;-35.352;149.036;2023-04-01T17:50:43;2.25;;;0.43;;
40022;SDS011;25713;-35.352;149.036;2023-04-01T17:53:23;1.08;;;0.32;;
40022;SDS011;25713;-35.352;149.036;2023-04-01T17:56:06;0.30;;;0.30;;
40022;SDS011;25713;-35.352;149.036;2023-04-01T17:58:45;1.38;;;0.40;;
40022;SDS011;25713;-35.352;149.036;2023-04-01T18:03:55;0.30;;;0.15;;
40022;SDS011;25713;-35.352;149.036;2023-04-01T18:06:41;0.63;;;0.30;;
40022;SDS011;25713;-35.352;149.036;2023-04-01T18:09:42;0.65;;;0.25;;
40022;SDS011;25713;-35.352;149.036;2023-04-01T18:12:24;0.15;;;0.15;;
40022;SDS011;25713;-35.352;149.036;2023-04-01T18:15:02;0.40;;;0.30;;
40022;SDS011;25713;-35.352;149.036;2023-04-01T18:17:42;0.30;;;0.22;;
40022;SDS011;25713;-35.352;149.036;2023-04-01T18:20:31;0.85;;;0.30;;